Time,TemperatureF,DewpointF,PressureIn,WindDirection,WindDirectionDegrees,WindSpeedMPH,WindSpeedGustMPH,Humidity,HourlyPrecipIn,Conditions,Clouds,dailyrainin,SolarRadiationWatts/m^2,SoftwareType,DateUTC
2013-10-29 00:01:00,69.7,61.4,29.96,SE,131,0.0,4.0,75,0.00,CLR,SCT,0.00,0.0,WeatherDisplay:10.37,2013-10-29 10:01:00,
2013-10-29 00:10:00,69.2,62.8,29.95,SE,131,0.0,3.0,80,0.00,CLR,SCT,0.00,0.0,WeatherDisplay:10.37,2013-10-29 10:10:00,
2013-10-29 00:20:00,68.6,62.2,29.95,SE,131,0.0,2.0,80,0.00,CLR,SCT,0.00,0.0,WeatherDisplay:10.37,2013-10-29 10:20:00,
2013-10-29 00:31:00,68.2,63.2,29.95,SE,131,0.0,4.0,84,0.00,CLR,SCT,0.00,0.0,WeatherDisplay:10.37,2013-10-29 10:31:00,
2013-10-29 00:40:00,67.8,62.8,29.95,SE,131,0.0,1.0,84,0.00,CLR,SCT,0.00,0.0,WeatherDisplay:10.37,2013-10-29 10:40:00,
2013-10-29 00:50:00,67.2,61.5,29.95,ESE,119,2.0,5.0,82,0.00,CLR,SCT,0.00,0.0,WeatherDisplay:10.37,2013-10-29 10:50:00,
2013-10-29 01:01:00,67.2,61.2,29.95,SE,126,1.0,6.0,81,0.00,CLR,SCT,0.00,0.0,WeatherDisplay:10.37,2013-10-29 11:01:00,
2013-10-29 01:10:00,67.1,61.0,29.94,SE,128,1.0,5.0,81,0.00,CLR,SCT,0.00,0.0,WeatherDisplay:10.37,2013-10-29 11:10:00,
2013-10-29 01:20:00,67.0,61.4,29.94,SE,127,1.0,4.0,82,0.00,CLR,SCT,0.00,0.0,WeatherDisplay:10.37,2013-10-29 11:20:00,
2013-10-29 01:31:00,67.2,61.2,29.94,ESE,122,0.0,5.0,81,0.00,CLR,SCT,0.00,0.0,WeatherDisplay:10.37,2013-10-29 11:31:00,
2013-10-29 01:40:00,67.0,61.7,29.94,ESE,121,0.0,3.0,83,0.00,CLR,SCT,0.00,0.0,WeatherDisplay:10.37,2013-10-29 11:40:00,
2013-10-29 01:50:00,66.6,61.3,29.93,ESE,121,0.0,0.0,83,0.00,CLR,SCT,0.00,0.0,WeatherDisplay:10.37,2013-10-29 11:50:00,
2013-10-29 02:01:00,66.1,61.1,29.93,ESE,121,0.0,0.0,84,0.00,CLR,SCT,0.00,0.0,WeatherDisplay:10.37,2013-10-29 12:01:00,
2013-10-29 02:10:00,65.6,61.0,29.93,ESE,121,0.0,0.0,85,0.00,CLR,SCT,0.00,0.0,WeatherDisplay:10.37,2013-10-29 12:10:00,
2013-10-29 02:20:00,65.2,60.9,29.93,ESE,121,0.0,2.0,86,0.00,CLR,SCT,0.00,0.0,WeatherDisplay:10.37,2013-10-29 12:20:00,
2013-10-29 02:31:00,64.9,60.6,29.92,ESE,121,0.0,2.0,86,0.00,CLR,SCT,0.00,0.0,WeatherDisplay:10.37,2013-10-29 12:31:00,
2013-10-29 02:40:00,64.8,60.5,29.92,ESE,109,0.0,6.0,86,0.00,CLR,SCT,0.00,0.0,WeatherDisplay:10.37,2013-10-29 12:40:00,
2013-10-29 02:50:00,64.9,60.3,29.92,ESE,104,2.0,4.0,85,0.00,CLR,SCT,0.00,0.0,WeatherDisplay:10.37,2013-10-29 12:50:00,
2013-10-29 03:01:00,65.0,60.0,29.92,ESE,114,2.0,5.0,84,0.00,CLR,SCT,0.00,0.0,WeatherDisplay:10.37,2013-10-29 13:01:00,
2013-10-29 03:10:00,65.4,59.8,29.92,ESE,112,3.0,6.0,82,0.00,CLR,SCT,0.00,0.0,WeatherDisplay:10.37,2013-10-29 13:10:00,
2013-10-29 03:20:00,66.6,59.8,29.92,ESE,115,2.0,7.0,79,0.00,CLR,SCT,0.00,0.0,WeatherDisplay:10.37,2013-10-29 13:20:00,
2013-10-29 03:31:00,66.6,59.6,29.92,ESE,112,1.0,4.0,78,0.00,CLR,SCT,0.00,0.0,WeatherDisplay:10.37,2013-10-29 13:31:00,
2013-10-29 03:40:00,66.3,59.3,29.92,SE,124,2.0,5.0,78,0.00,CLR,SCT,0.00,0.0,WeatherDisplay:10.37,2013-10-29 13:40:00,
2013-10-29 03:50:00,66.0,58.6,29.92,SE,135,0.0,4.0,77,0.00,CLR,SCT,0.00,0.0,WeatherDisplay:10.37,2013-10-29 13:50:00,
2013-10-29 04:01:00,65.5,58.5,29.92,SE,135,0.0,1.0,78,0.00,CLR,SCT,0.00,0.0,WeatherDisplay:10.37,2013-10-29 14:01:00,
2013-10-29 04:10:00,65.0,58.3,29.92,SE,135,1.0,3.0,79,0.00,CLR,SCT,0.00,0.0,WeatherDisplay:10.37,2013-10-29 14:10:00,
2013-10-29 04:20:00,64.8,57.7,29.92,ESE,121,2.0,6.0,78,0.00,CLR,SCT,0.00,0.0,WeatherDisplay:10.37,2013-10-29 14:20:00,
2013-10-29 04:31:00,65.4,58.0,29.93,ESE,105,1.0,7.0,77,0.00,CLR,SCT,0.00,0.0,WeatherDisplay:10.37,2013-10-29 14:31:00,
2013-10-29 04:40:00,65.6,57.9,29.92,ESE,112,1.0,6.0,76,0.00,CLR,SCT,0.00,0.0,WeatherDisplay:10.37,2013-10-29 14:40:00,
2013-10-29 04:50:00,65.7,57.9,29.92,ESE,115,0.0,3.0,76,0.00,CLR,SCT,0.00,0.0,WeatherDisplay:10.37,2013-10-29 14:50:00,
2013-10-29 05:01:00,65.3,57.9,29.92,ESE,115,2.0,3.0,77,0.00,CLR,SCT,0.00,0.0,WeatherDisplay:10.37,2013-10-29 15:01:00,
2013-10-29 05:10:00,65.8,58.8,29.92,ESE,104,7.0,12.0,78,0.00,CLR,SCT,0.00,0.0,WeatherDisplay:10.37,2013-10-29 15:10:00,
2013-10-29 05:20:00,67.5,60.1,29.93,East,92,6.0,12.0,77,0.00,CLR,SCT,0.00,0.0,WeatherDisplay:10.37,2013-10-29 15:20:00,
2013-10-29 05:31:00,68.4,60.5,29.92,East,90,6.0,13.0,76,0.00,CLR,SCT,0.00,0.0,WeatherDisplay:10.37,2013-10-29 15:31:00,
2013-10-29 05:40:00,68.7,60.5,29.92,ESE,107,2.0,10.0,75,0.00,CLR,SCT,0.00,0.0,WeatherDisplay:10.37,2013-10-29 15:40:00,
2013-10-29 05:50:00,68.3,59.7,29.92,ESE,117,1.0,6.0,74,0.00,CLR,SCT,0.00,0.0,WeatherDisplay:10.37,2013-10-29 15:50:00,
2013-10-29 06:01:00,67.7,59.1,29.93,ESE,119,0.0,3.0,74,0.00,CLR,SCT,0.00,0.0,WeatherDisplay:10.37,2013-10-29 16:01:00,
2013-10-29 06:10:00,66.8,58.6,29.93,ESE,104,1.0,8.0,75,0.00,CLR,SCT,0.00,0.0,WeatherDisplay:10.37,2013-10-29 16:10:00,
2013-10-29 06:20:00,67.0,58.8,29.94,East,98,1.0,9.0,75,0.00,CLR,SCT,0.00,0.0,WeatherDisplay:10.37,2013-10-29 16:20:00,
2013-10-29 06:31:00,66.8,58.2,29.94,ESE,105,3.0,4.0,74,0.00,CLR,SCT,0.00,0.2,WeatherDisplay:10.37,2013-10-29 16:31:00,
2013-10-29 06:40:00,67.0,57.7,29.94,ESE,106,3.0,8.0,72,0.00,CLR,SCT,0.00,1.3,WeatherDisplay:10.37,2013-10-29 16:40:00,
2013-10-29 06:50:00,66.9,57.6,29.94,ESE,121,1.0,8.0,72,0.00,CLR,SCT,0.00,3.5,WeatherDisplay:10.37,2013-10-29 16:50:00,
2013-10-29 07:01:00,67.0,56.5,29.95,ESE,119,0.0,4.0,69,0.00,CLR,SCT,0.00,6.4,WeatherDisplay:10.37,2013-10-29 17:01:00,
2013-10-29 07:10:00,66.9,57.2,29.95,ESE,111,1.0,5.0,71,0.00,SCT,SCT,0.00,11.2,WeatherDisplay:10.37,2013-10-29 17:10:00,
2013-10-29 07:20:00,67.3,56.8,29.95,ESE,102,1.0,4.0,69,0.00,SCT,SCT,0.00,15.2,WeatherDisplay:10.37,2013-10-29 17:20:00,
2013-10-29 07:31:00,67.8,58.1,29.95,ESE,102,0.0,5.0,71,0.00,SCT,SCT,0.00,18.8,WeatherDisplay:10.37,2013-10-29 17:31:00,
2013-10-29 07:40:00,68.5,61.4,29.96,ESE,102,0.0,1.0,78,0.00,SCT,SCT,0.00,52.5,WeatherDisplay:10.37,2013-10-29 17:40:00,
2013-10-29 07:50:00,70.7,62.7,29.96,ESE,102,0.0,2.0,76,0.00,SCT,SCT,0.00,114.5,WeatherDisplay:10.37,2013-10-29 17:50:00,
2013-10-29 08:01:00,73.1,64.3,29.96,ESE,102,0.0,0.0,74,0.00,SCT,SCT,0.00,154.1,WeatherDisplay:10.37,2013-10-29 18:01:00,
2013-10-29 08:10:00,75.1,64.7,29.96,ESE,102,0.0,0.0,70,0.00,SCT,SCT,0.00,154.6,WeatherDisplay:10.37,2013-10-29 18:10:00,
2013-10-29 08:20:00,75.4,63.7,29.96,SSE,149,2.0,4.0,67,0.00,SCT,SCT,0.00,123.4,WeatherDisplay:10.37,2013-10-29 18:20:00,
2013-10-29 08:31:00,75.2,63.9,29.97,South,173,0.0,4.0,68,0.00,SCT,SCT,0.00,136.8,WeatherDisplay:10.37,2013-10-29 18:31:00,
2013-10-29 08:40:00,75.0,65.0,29.97,East,94,7.0,14.0,71,0.00,SCT,SCT,0.00,118.3,WeatherDisplay:10.37,2013-10-29 18:40:00,
2013-10-29 08:50:00,74.4,65.6,29.97,ESE,104,1.0,10.0,74,0.00,SCT,SCT,0.00,220.0,WeatherDisplay:10.37,2013-10-29 18:50:00,
2013-10-29 09:01:00,74.9,66.4,29.97,ENE,65,5.0,9.0,75,0.00,SCT,SCT,0.00,200.3,WeatherDisplay:10.37,2013-10-29 19:01:00,
2013-10-29 09:10:00,76.1,65.2,29.97,East,95,0.0,6.0,69,0.00,CLR,SCT,0.00,363.7,WeatherDisplay:10.37,2013-10-29 19:10:00,
2013-10-29 09:20:00,77.6,64.4,29.97,SSW,193,2.0,7.0,64,0.00,CLR,SCT,0.00,264.4,WeatherDisplay:10.37,2013-10-29 19:20:00,
2013-10-29 09:31:00,77.1,65.7,29.97,East,80,3.0,10.0,68,0.00,CLR,SCT,0.00,215.5,WeatherDisplay:10.37,2013-10-29 19:31:00,
2013-10-29 09:40:00,77.1,65.7,29.97,ENE,68,6.0,9.0,68,0.00,CLR,SCT,0.00,247.0,WeatherDisplay:10.37,2013-10-29 19:40:00,
2013-10-29 09:50:00,76.5,66.0,29.97,ENE,72,7.0,14.0,70,0.00,CLR,SCT,0.00,228.7,WeatherDisplay:10.37,2013-10-29 19:50:00,
2013-10-29 10:01:00,75.8,65.7,29.97,ENE,75,6.0,13.0,71,0.00,CLR,SCT,0.00,186.7,WeatherDisplay:10.37,2013-10-29 20:01:00,
2013-10-29 10:10:00,75.2,66.4,29.97,ENE,65,5.0,14.0,74,0.00,CLR,SCT,0.00,139.7,WeatherDisplay:10.37,2013-10-29 20:10:00,
2013-10-29 10:20:00,74.5,64.5,29.97,ESE,122,5.0,15.0,71,0.00,CLR,SCT,0.00,201.5,WeatherDisplay:10.37,2013-10-29 20:20:00,
2013-10-29 10:31:00,74.9,65.3,29.97,East,93,2.0,7.0,72,0.00,CLR,SCT,0.00,298.4,WeatherDisplay:10.37,2013-10-29 20:31:00,
2013-10-29 10:40:00,76.6,66.5,29.96,ENE,78,8.0,12.0,71,0.00,CLR,SCT,0.00,623.9,WeatherDisplay:10.37,2013-10-29 20:40:00,
2013-10-29 10:50:00,78.6,67.6,29.95,ENE,74,5.0,12.0,69,0.00,CLR,SCT,0.00,673.7,WeatherDisplay:10.37,2013-10-29 20:50:00,
2013-10-29 11:01:00,79.2,66.9,29.95,East,89,7.0,12.0,66,0.00,CLR,SCT,0.00,867.7,WeatherDisplay:10.37,2013-10-29 21:01:00,
2013-10-29 11:10:00,80.3,68.3,29.94,East,85,6.0,12.0,67,0.00,SCT,SCT,0.00,1135.1,WeatherDisplay:10.37,2013-10-29 21:10:00,
2013-10-29 11:20:00,79.4,67.1,29.94,ENE,66,9.0,15.0,66,0.00,SCT,SCT,0.00,547.3,WeatherDisplay:10.37,2013-10-29 21:20:00,
2013-10-29 11:31:00,78.2,65.9,29.93,ENE,71,9.0,18.0,66,0.00,SCT,SCT,0.00,349.9,WeatherDisplay:10.37,2013-10-29 21:31:00,
2013-10-29 11:40:00,77.4,66.9,29.93,East,79,5.0,16.0,70,0.00,SCT,SCT,0.00,605.6,WeatherDisplay:10.37,2013-10-29 21:40:00,
2013-10-29 11:50:00,77.4,66.8,29.93,ENE,70,7.0,15.0,70,0.00,SCT,SCT,0.00,986.8,WeatherDisplay:10.37,2013-10-29 21:50:00,
2013-10-29 12:01:00,77.3,66.8,29.93,ENE,68,9.0,17.0,70,0.00,SCT,SCT,0.00,321.6,WeatherDisplay:10.37,2013-10-29 22:01:00,
2013-10-29 12:10:00,77.1,67.0,29.92,ENE,73,8.0,21.0,71,0.00,FEW,SCT,0.00,476.1,WeatherDisplay:10.37,2013-10-29 22:10:00,
2013-10-29 12:20:00,77.2,66.3,29.92,East,89,5.0,15.0,69,0.00,FEW,SCT,0.00,442.0,WeatherDisplay:10.37,2013-10-29 22:20:00,
2013-10-29 12:31:00,77.0,66.9,29.92,ENE,74,7.0,20.0,71,0.00,FEW,SCT,0.00,426.3,WeatherDisplay:10.37,2013-10-29 22:31:00,
2013-10-29 12:40:00,77.0,66.5,29.91,ENE,77,7.0,17.0,70,0.00,FEW,SCT,0.00,580.3,WeatherDisplay:10.37,2013-10-29 22:40:00,
2013-10-29 12:50:00,76.9,65.5,29.91,ENE,74,6.0,14.0,68,0.00,FEW,SCT,0.00,452.2,WeatherDisplay:10.37,2013-10-29 22:50:00,
2013-10-29 13:01:00,77.4,66.4,29.91,East,82,7.0,12.0,69,0.00,FEW,SCT,0.00,553.0,WeatherDisplay:10.37,2013-10-29 23:01:00,
2013-10-29 13:10:00,77.3,65.1,29.91,East,87,7.0,12.0,66,0.00,SCT,SCT,0.00,545.3,WeatherDisplay:10.37,2013-10-29 23:10:00,
2013-10-29 13:20:00,77.6,65.8,29.90,East,85,5.0,17.0,67,0.00,SCT,SCT,0.00,407.1,WeatherDisplay:10.37,2013-10-29 23:20:00,
2013-10-29 13:31:00,77.3,65.1,29.90,East,92,5.0,13.0,66,0.00,SCT,SCT,0.00,255.1,WeatherDisplay:10.37,2013-10-29 23:31:00,
2013-10-29 13:40:00,77.3,65.5,29.90,East,88,5.0,12.0,67,0.00,SCT,SCT,0.00,314.4,WeatherDisplay:10.37,2013-10-29 23:40:00,
2013-10-29 13:50:00,77.3,66.4,29.90,East,81,9.0,15.0,69,0.00,SCT,SCT,0.00,327.7,WeatherDisplay:10.37,2013-10-29 23:50:00,
2013-10-29 14:01:00,76.9,65.9,29.90,East,91,6.0,14.0,69,0.00,SCT,SCT,0.00,208.3,WeatherDisplay:10.37,2013-10-30 00:01:00,
2013-10-29 14:11:00,76.1,65.2,29.90,East,85,10.0,13.0,69,0.00,SCT,SCT,0.00,185.0,WeatherDisplay:10.37,2013-10-30 00:11:00,
2013-10-29 14:20:00,75.4,65.7,29.90,East,93,7.0,17.0,72,0.00,SCT,SCT,0.00,235.7,WeatherDisplay:10.37,2013-10-30 00:20:00,
2013-10-29 14:31:00,75.7,66.0,29.90,ENE,78,8.0,13.0,72,0.00,SCT,SCT,0.00,194.0,WeatherDisplay:10.37,2013-10-30 00:31:00,
2013-10-29 14:41:00,75.1,65.8,29.89,ENE,71,9.0,14.0,73,0.00,SCT,SCT,0.00,192.8,WeatherDisplay:10.37,2013-10-30 00:41:00,
2013-10-29 14:50:00,75.0,65.7,29.89,ENE,75,8.0,14.0,73,0.00,SCT,SCT,0.00,204.1,WeatherDisplay:10.37,2013-10-30 00:50:00,
2013-10-29 15:01:00,75.3,66.1,29.89,ENE,77,8.0,14.0,73,0.00,SCT,SCT,0.00,247.2,WeatherDisplay:10.37,2013-10-30 01:01:00,
2013-10-29 15:11:00,75.7,65.2,29.89,East,91,5.0,12.0,70,0.00,SCT,SCT,0.00,245.2,WeatherDisplay:10.37,2013-10-30 01:11:00,
2013-10-29 15:21:00,76.0,64.7,29.89,East,79,8.0,13.0,68,0.00,SCT,SCT,0.00,176.2,WeatherDisplay:10.37,2013-10-30 01:21:00,
2013-10-29 15:31:00,76.0,65.5,29.89,ENE,73,6.0,12.0,70,0.00,SCT,SCT,0.00,230.9,WeatherDisplay:10.37,2013-10-30 01:31:00,
2013-10-29 15:40:00,76.7,66.1,29.89,ENE,78,6.0,13.0,70,0.00,SCT,SCT,0.00,267.1,WeatherDisplay:10.37,2013-10-30 01:40:00,
2013-10-29 15:50:00,76.8,65.4,29.89,East,79,10.0,15.0,68,0.00,SCT,SCT,0.00,91.0,WeatherDisplay:10.37,2013-10-30 01:50:00,
2013-10-29 16:01:00,76.7,65.7,29.90,East,90,7.0,14.0,69,0.00,SCT,SCT,0.00,247.5,WeatherDisplay:10.37,2013-10-30 02:01:00,
2013-10-29 16:11:00,78.2,65.5,29.90,East,84,6.0,14.0,65,0.00,SCT,SCT,0.00,178.5,WeatherDisplay:10.37,2013-10-30 02:11:00,
2013-10-29 16:21:00,78.4,65.2,29.90,East,98,6.0,13.0,64,0.00,SCT,SCT,0.00,122.8,WeatherDisplay:10.37,2013-10-30 02:21:00,
2013-10-29 16:31:00,77.7,64.5,29.90,East,84,8.0,17.0,64,0.00,SCT,SCT,0.00,112.2,WeatherDisplay:10.37,2013-10-30 02:31:00,
2013-10-29 16:41:00,77.3,64.2,29.90,East,86,8.0,15.0,64,0.00,SCT,SCT,0.00,65.0,WeatherDisplay:10.37,2013-10-30 02:41:00,
2013-10-29 16:50:00,76.8,65.4,29.90,East,82,8.0,15.0,68,0.00,SCT,SCT,0.00,52.2,WeatherDisplay:10.37,2013-10-30 02:50:00,
2013-10-29 17:01:00,75.6,64.3,29.91,East,87,6.0,15.0,68,0.00,SCT,SCT,0.00,39.1,WeatherDisplay:10.37,2013-10-30 03:01:00,
2013-10-29 17:11:00,74.9,64.4,29.92,ENE,76,6.0,14.0,70,0.00,SCT,SCT,0.00,30.3,WeatherDisplay:10.37,2013-10-30 03:11:00,
2013-10-29 17:21:00,74.0,64.0,29.92,ENE,78,6.0,13.0,71,0.00,SCT,SCT,0.00,11.5,WeatherDisplay:10.37,2013-10-30 03:21:00,
2013-10-29 17:31:00,73.2,64.4,29.92,ENE,75,8.0,14.0,74,0.00,SCT,SCT,0.00,3.6,WeatherDisplay:10.37,2013-10-30 03:31:00,
2013-10-29 17:41:00,72.4,64.0,29.92,East,89,7.0,13.0,75,0.00,SCT,SCT,0.00,0.3,WeatherDisplay:10.37,2013-10-30 03:41:00,
2013-10-29 17:50:00,71.9,62.8,29.93,East,93,7.0,13.0,73,0.00,SCT,SCT,0.00,0.0,WeatherDisplay:10.37,2013-10-30 03:50:00,
2013-10-29 18:01:00,71.7,62.2,29.93,East,88,8.0,12.0,72,0.00,SCT,SCT,0.00,0.0,WeatherDisplay:10.37,2013-10-30 04:01:00,
2013-10-29 18:11:00,71.6,62.5,29.94,ENE,74,6.0,12.0,73,0.00,SCT,SCT,0.00,0.0,WeatherDisplay:10.37,2013-10-30 04:11:00,
2013-10-29 18:20:00,71.1,63.1,29.94,East,83,5.0,10.0,76,0.00,SCT,SCT,0.00,0.0,WeatherDisplay:10.37,2013-10-30 04:20:00,
2013-10-29 18:31:00,70.6,62.7,29.94,East,87,8.0,12.0,76,0.00,SCT,SCT,0.00,0.0,WeatherDisplay:10.37,2013-10-30 04:31:00,
2013-10-29 18:40:00,70.4,63.2,29.95,East,80,8.0,15.0,78,0.00,SCT,SCT,0.00,0.0,WeatherDisplay:10.37,2013-10-30 04:40:00,
2013-10-29 18:50:00,70.3,63.1,29.96,East,88,5.0,13.0,78,0.00,SCT,SCT,0.00,0.0,WeatherDisplay:10.37,2013-10-30 04:50:00,
2013-10-29 19:01:00,70.1,63.3,29.96,East,87,8.0,13.0,79,0.00,SCT,SCT,0.00,0.0,WeatherDisplay:10.37,2013-10-30 05:01:00,
2013-10-29 19:10:00,70.0,62.8,29.96,East,84,8.0,13.0,78,0.00,SCT,SCT,0.00,0.0,WeatherDisplay:10.37,2013-10-30 05:10:00,
2013-10-29 19:20:00,70.0,62.8,29.97,East,81,6.0,15.0,78,0.00,SCT,SCT,0.00,0.0,WeatherDisplay:10.37,2013-10-30 05:20:00,
2013-10-29 19:31:00,70.0,62.5,29.97,ENE,77,8.0,14.0,77,0.00,SCT,SCT,0.00,0.0,WeatherDisplay:10.37,2013-10-30 05:31:00,
2013-10-29 19:40:00,70.1,61.8,29.98,East,86,6.0,15.0,75,0.00,SCT,SCT,0.00,0.0,WeatherDisplay:10.37,2013-10-30 05:40:00,
2013-10-29 19:50:00,69.7,62.5,29.99,ENE,61,6.0,10.0,78,0.00,SCT,SCT,0.00,0.0,WeatherDisplay:10.37,2013-10-30 05:50:00,
2013-10-29 20:01:00,69.3,62.9,29.99,ENE,68,3.0,10.0,80,0.00,SCT,SCT,0.00,0.0,WeatherDisplay:10.37,2013-10-30 06:01:00,
2013-10-29 20:10:00,69.0,61.9,29.99,ENE,77,6.0,10.0,78,0.00,CLR,SCT,0.00,0.0,WeatherDisplay:10.37,2013-10-30 06:10:00,
2013-10-29 20:20:00,69.1,61.9,29.99,East,81,5.0,12.0,78,0.00,CLR,SCT,0.00,0.0,WeatherDisplay:10.37,2013-10-30 06:20:00,
2013-10-29 20:31:00,69.2,61.3,30.00,East,89,6.0,12.0,76,0.00,CLR,SCT,0.00,0.0,WeatherDisplay:10.37,2013-10-30 06:31:00,
2013-10-29 20:40:00,69.3,61.7,30.00,East,82,7.0,12.0,77,0.00,CLR,SCT,0.00,0.0,WeatherDisplay:10.37,2013-10-30 06:40:00,
2013-10-29 20:50:00,69.1,61.9,30.00,East,79,7.0,10.0,78,0.00,CLR,SCT,0.00,0.0,WeatherDisplay:10.37,2013-10-30 06:50:00,
2013-10-29 21:01:00,69.0,62.2,30.00,ENE,73,8.0,14.0,79,0.00,CLR,SCT,0.00,0.0,WeatherDisplay:10.37,2013-10-30 07:01:00,
2013-10-29 21:10:00,68.8,61.3,30.00,ENE,77,7.0,14.0,77,0.00,CLR,SCT,0.00,0.0,WeatherDisplay:10.37,2013-10-30 07:10:00,
2013-10-29 21:20:00,68.8,59.4,30.00,East,85,6.0,10.0,72,0.00,CLR,SCT,0.00,0.0,WeatherDisplay:10.37,2013-10-30 07:20:00,
2013-10-29 21:31:00,68.8,58.6,30.00,East,91,7.0,12.0,70,0.00,CLR,SCT,0.00,0.0,WeatherDisplay:10.37,2013-10-30 07:31:00,
2013-10-29 21:40:00,68.6,58.4,30.00,East,88,5.0,9.0,70,0.00,CLR,SCT,0.00,0.0,WeatherDisplay:10.37,2013-10-30 07:40:00,
2013-10-29 21:50:00,68.3,58.5,30.00,East,81,6.0,10.0,71,0.00,CLR,SCT,0.00,0.0,WeatherDisplay:10.37,2013-10-30 07:50:00,
2013-10-29 22:01:00,68.4,58.6,30.01,East,79,3.0,10.0,71,0.00,CLR,SCT,0.00,0.0,WeatherDisplay:10.37,2013-10-30 08:01:00,
2013-10-29 22:10:00,68.4,59.0,30.00,ENE,69,6.0,10.0,72,0.00,CLR,SCT,0.00,0.0,WeatherDisplay:10.37,2013-10-30 08:10:00,
2013-10-29 22:20:00,68.4,58.6,30.00,East,84,3.0,10.0,71,0.00,CLR,SCT,0.00,0.0,WeatherDisplay:10.37,2013-10-30 08:20:00,
2013-10-29 22:31:00,68.1,60.3,30.00,East,79,5.0,8.0,76,0.00,CLR,SCT,0.00,0.0,WeatherDisplay:10.37,2013-10-30 08:31:00,
2013-10-29 22:40:00,68.3,61.9,30.00,ENE,76,6.0,14.0,80,0.00,CLR,SCT,0.00,0.0,WeatherDisplay:10.37,2013-10-30 08:40:00,
2013-10-29 22:50:00,68.2,61.8,30.00,ENE,67,6.0,10.0,80,0.00,CLR,SCT,0.00,0.0,WeatherDisplay:10.37,2013-10-30 08:50:00,
2013-10-29 23:01:00,68.1,61.7,30.00,East,84,7.0,10.0,80,0.00,CLR,SCT,0.00,0.0,WeatherDisplay:10.37,2013-10-30 09:01:00,
2013-10-29 23:10:00,68.4,62.0,30.00,ENE,74,7.0,12.0,80,0.00,FEW,SCT,0.00,0.0,WeatherDisplay:10.37,2013-10-30 09:10:00,
2013-10-29 23:20:00,68.5,62.1,30.00,East,80,6.0,13.0,80,0.00,FEW,SCT,0.00,0.0,WeatherDisplay:10.37,2013-10-30 09:20:00,
2013-10-29 23:31:00,68.6,61.8,30.00,East,91,2.0,12.0,79,0.00,FEW,SCT,0.00,0.0,WeatherDisplay:10.37,2013-10-30 09:31:00,
2013-10-29 23:40:00,68.3,61.5,29.99,ENE,60,7.0,15.0,79,0.00,FEW,SCT,0.00,0.0,WeatherDisplay:10.37,2013-10-30 09:40:00,
2013-10-29 23:50:00,68.2,60.7,29.99,ENE,74,5.0,10.0,77,0.00,FEW,SCT,0.00,0.0,WeatherDisplay:10.37,2013-10-30 09:50:00,